sensor_id;sensor_type;location;lat;lon;timestamp;P1;durP1;ratioP1;P2;durP2;ratioP2
12888;SDS011;56848;49.896;11.424;2023-04-03T04:00:27;7.30;;;3.17;;
12888;SDS011;56848;49.896;11.424;2023-04-03T04:02:53;5.30;;;2.50;;
12888;SDS011;56848;49.896;11.424;2023-04-03T04:05:19;2.40;;;1.93;;
12888;SDS011;56848;49.896;11.424;2023-04-03T04:07:45;7.40;;;2.77;;
12888;SDS011;56848;49.896;11.424;2023-04-03T04:10:10;7.50;;;2.67;;
12888;SDS011;56848;49.896;11.424;2023-04-03T04:12:36;4.50;;;2.00;;
12888;SDS011;56848;49.896;11.424;2023-04-03T04:15:02;7.67;;;2.57;;
12888;SDS011;56848;49.896;11.424;2023-04-03T04:17:28;7.93;;;2.53;;
12888;SDS011;56848;49.896;11.424;2023-04-03T04:19:54;4.23;;;1.97;;
12888;SDS011;56848;49.896;11.424;2023-04-03T04:22:19;5.03;;;2.90;;
12888;SDS011;56848;49.896;11.424;2023-04-03T04:24:45;3.50;;;2.20;;
12888;SDS011;56848;49.896;11.424;2023-04-03T04:27:10;9.57;;;2.60;;
12888;SDS011;56848;49.896;11.424;2023-04-03T04:29:36;6.70;;;2.30;;
12888;SDS011;56848;49.896;11.424;2023-04-03T04:32:02;7.07;;;2.03;;
12888;SDS011;56848;49.896;11.424;2023-04-03T04:34:28;1.63;;;1.52;;
12888;SDS011;56848;49.896;11.424;2023-04-03T04:36:54;2.63;;;2.30;;
12888;SDS011;56848;49.896;11.424;2023-04-03T04:39:20;4.57;;;1.90;;
12888;SDS011;56848;49.896;11.424;2023-04-03T04:41:45;2.93;;;2.50;;
12888;SDS011;56848;49.896;11.424;2023-04-03T04:44:11;4.57;;;1.93;;
12888;SDS011;56848;49.896;11.424;2023-04-03T04:46:36;1.60;;;1.50;;
12888;SDS011;56848;49.896;11.424;2023-04-03T04:49:02;5.07;;;2.20;;
12888;SDS011;56848;49.896;11.424;2023-04-03T04:51:28;2.27;;;1.90;;
12888;SDS011;56848;49.896;11.424;2023-04-03T04:53:53;2.13;;;1.80;;
12888;SDS011;56848;49.896;11.424;2023-04-03T04:56:19;3.37;;;2.73;;
12888;SDS011;56848;49.896;11.424;2023-04-03T04:58:45;6.15;;;2.38;;
12888;SDS011;56848;49.896;11.424;2023-04-03T05:01:11;9.17;;;3.00;;
12888;SDS011;56848;49.896;11.424;2023-04-03T05:03:36;4.80;;;2.93;;
12888;SDS011;56848;49.896;11.424;2023-04-03T05:06:02;6.50;;;3.60;;
12888;SDS011;56848;49.896;11.424;2023-04-03T05:08:29;3.75;;;3.10;;
12888;SDS011;56848;49.896;11.424;2023-04-03T05:10:55;5.97;;;3.37;;
12888;SDS011;56848;49.896;11.424;2023-04-03T05:13:20;9.00;;;3.30;;
12888;SDS011;56848;49.896;11.424;2023-04-03T05:15:46;6.20;;;3.27;;
12888;SDS011;56848;49.896;11.424;2023-04-03T05:18:12;5.80;;;3.15;;
12888;SDS011;56848;49.896;11.424;2023-04-03T05:20:38;4.87;;;3.50;;
12888;SDS011;56848;49.896;11.424;2023-04-03T05:23:03;8.63;;;2.40;;
12888;SDS011;56848;49.896;11.424;2023-04-03T05:25:29;4.70;;;2.50;;
12888;SDS011;56848;49.896;11.424;2023-04-03T05:27:55;8.10;;;3.47;;
12888;SDS011;56848;49.896;11.424;2023-04-03T05:30:21;7.17;;;3.70;;
12888;SDS011;56848;49.896;11.424;2023-04-03T05:32:47;5.30;;;3.20;;
12888;SDS011;56848;49.896;11.424;2023-04-03T05:35:12;5.87;;;3.57;;
12888;SDS011;56848;49.896;11.424;2023-04-03T05:37:38;4.50;;;2.93;;
12888;SDS011;56848;49.896;11.424;2023-04-03T05:40:04;3.20;;;2.00;;
12888;SDS011;56848;49.896;11.424;2023-04-03T05:42:31;5.88;;;2.80;;
12888;SDS011;56848;49.896;11.424;2023-04-03T05:44:56;8.13;;;4.35;;
12888;SDS011;56848;49.896;11.424;2023-04-03T05:47:22;5.93;;;3.50;;
12888;SDS011;56848;49.896;11.424;2023-04-03T05:49:48;1.80;;;1.70;;
12888;SDS011;56848;49.896;11.424;2023-04-03T05:52:23;5.40;;;2.93;;
12888;SDS011;56848;49.896;11.424;2023-04-03T05:54:55;3.70;;;3.35;;
12888;SDS011;56848;49.896;11.424;2023-04-03T05:57:21;5.40;;;3.50;;
12888;SDS011;56848;49.896;11.424;2023-04-03T05:59:47;2.70;;;2.50;;
12888;SDS011;56848;49.896;11.424;2023-04-03T06:02:14;4.45;;;3.05;;
12888;SDS011;56848;49.896;11.424;2023-04-03T06:04:44;6.78;;;3.88;;
12888;SDS011;56848;49.896;11.424;2023-04-03T06:07:11;6.57;;;2.53;;
12888;SDS011;56848;49.896;11.424;2023-04-03T06:09:40;4.22;;;3.38;;
12888;SDS011;56848;49.896;11.424;2023-04-03T06:12:07;3.05;;;2.72;;
12888;SDS011;56848;49.896;11.424;2023-04-03T06:14:33;5.38;;;3.60;;
12888;SDS011;56848;49.896;11.424;2023-04-03T06:16:58;6.50;;;3.77;;
12888;SDS011;56848;49.896;11.424;2023-04-03T06:19:24;4.60;;;3.22;;
12888;SDS011;56848;49.896;11.424;2023-04-03T06:21:51;3.63;;;3.03;;
12888;SDS011;56848;49.896;11.424;2023-04-03T06:24:17;7.50;;;3.83;;
12888;SDS011;56848;49.896;11.424;2023-04-03T06:26:43;3.05;;;1.90;;
12888;SDS011;56848;49.896;11.424;2023-04-03T06:29:09;2.87;;;2.57;;
12888;SDS011;56848;49.896;11.424;2023-04-03T06:31:35;4.63;;;2.83;;
12888;SDS011;56848;49.896;11.424;2023-04-03T06:34:01;6.68;;;3.80;;
12888;SDS011;56848;49.896;11.424;2023-04-03T06:36:28;3.17;;;2.50;;
12888;SDS011;56848;49.896;11.424;2023-04-03T06:38:54;3.15;;;2.28;;
12888;SDS011;56848;49.896;11.424;2023-04-03T06:41:20;4.60;;;2.40;;
12888;SDS011;56848;49.896;11.424;2023-04-03T06:43:47;4.57;;;3.15;;
12888;SDS011;56848;49.896;11.424;2023-04-03T06:46:19;6.43;;;1.77;;
12888;SDS011;56848;49.896;11.424;2023-04-03T06:48:46;7.30;;;2.53;;
12888;SDS011;56848;49.896;11.424;2023-04-03T06:53:52;4.88;;;1.83;;
12888;SDS011;56848;49.896;11.424;2023-04-03T06:56:19;4.82;;;2.25;;
12888;SDS011;56848;49.896;11.424;2023-04-03T06:58:45;8.02;;;2.97;;
12888;SDS011;56848;49.896;11.424;2023-04-03T07:01:12;1.48;;;1.38;;
12888;SDS011;56848;49.896;11.424;2023-04-03T07:03:39;1.60;;;1.50;;
12888;SDS011;56848;49.896;11.424;2023-04-03T07:06:05;3.72;;;2.15;;
12888;SDS011;56848;49.896;11.424;2023-04-03T07:08:32;5.20;;;1.90;;
12888;SDS011;56848;49.896;11.424;2023-04-03T07:10:58;0.80;;;0.80;;
12888;SDS011;56848;49.896;11.424;2023-04-03T07:13:24;2.03;;;1.40;;
12888;SDS011;56848;49.896;11.424;2023-04-03T07:15:50;5.20;;;3.17;;
12888;SDS011;56848;49.896;11.424;2023-04-03T07:18:16;9.03;;;3.43;;
12888;SDS011;56848;49.896;11.424;2023-04-03T07:20:44;9.15;;;4.38;;
12888;SDS011;56848;49.896;11.424;2023-04-03T07:23:10;12.03;;;3.40;;
12888;SDS011;56848;49.896;11.424;2023-04-03T07:25:36;3.20;;;2.77;;
12888;SDS011;56848;49.896;11.424;2023-04-03T07:28:04;2.83;;;2.08;;
12888;SDS011;56848;49.896;11.424;2023-04-03T07:30:29;2.40;;;2.20;;
12888;SDS011;56848;49.896;11.424;2023-04-03T07:32:55;4.10;;;2.27;;
12888;SDS011;56848;49.896;11.424;2023-04-03T07:35:21;4.63;;;3.03;;
12888;SDS011;56848;49.896;11.424;2023-04-03T07:37:47;4.22;;;1.70;;
12888;SDS011;56848;49.896;11.424;2023-04-03T07:40:12;3.57;;;2.20;;
12888;SDS011;56848;49.896;11.424;2023-04-03T07:42:38;5.30;;;2.37;;
12888;SDS011;56848;49.896;11.424;2023-04-03T07:45:04;10.27;;;2.40;;
12888;SDS011;56848;49.896;11.424;2023-04-03T07:47:30;3.90;;;2.67;;
12888;SDS011;56848;49.896;11.424;2023-04-03T07:49:56;2.43;;;1.67;;
12888;SDS011;56848;49.896;11.424;2023-04-03T07:52:22;7.00;;;2.80;;
12888;SDS011;56848;49.896;11.424;2023-04-03T07:54:48;9.07;;;3.22;;
12888;SDS011;56848;49.896;11.424;2023-04-03T07:57:14;6.80;;;4.00;;
12888;SDS011;56848;49.896;11.424;2023-04-03T07:59:40;1.83;;;1.67;;
12888;SDS011;56848;49.896;11.424;2023-04-03T08:02:09;3.42;;;1.33;;
12888;SDS011;56848;49.896;11.424;2023-04-03T08:04:35;2.10;;;1.90;;
12888;SDS011;56848;49.896;11.424;2023-04-03T08:07:01;7.63;;;2.77;;
12888;SDS011;56848;49.896;11.424;2023-04-03T08:09:26;3.80;;;1.53;;
12888;SDS011;56848;49.896;11.424;2023-04-03T08:11:52;5.20;;;2.20;;
12888;SDS011;56848;49.896;11.424;2023-04-03T08:14:18;5.93;;;3.10;;
12888;SDS011;56848;49.896;11.424;2023-04-03T08:16:46;3.70;;;1.98;;
12888;SDS011;56848;49.896;11.424;2023-04-03T08:19:12;13.48;;;3.55;;
12888;SDS011;56848;49.896;11.424;2023-04-03T08:21:40;4.10;;;2.40;;
12888;SDS011;56848;49.896;11.424;2023-04-03T08:24:06;1.45;;;1.35;;
12888;SDS011;56848;49.896;11.424;2023-04-03T08:26:33;5.80;;;2.97;;
12888;SDS011;56848;49.896;11.424;2023-04-03T08:28:58;5.75;;;2.83;;
12888;SDS011;56848;49.896;11.424;2023-04-03T08:31:24;2.10;;;1.70;;
12888;SDS011;56848;49.896;11.424;2023-04-03T08:33:49;2.53;;;1.57;;
12888;SDS011;56848;49.896;11.424;2023-04-03T08:36:19;3.70;;;2.30;;
12888;SDS011;56848;49.896;11.424;2023-04-03T08:38:47;1.95;;;1.55;;
12888;SDS011;56848;49.896;11.424;2023-04-03T08:41:26;5.13;;;2.45;;
12888;SDS011;56848;49.896;11.424;2023-04-03T08:49:47;4.20;;;2.67;;
12888;SDS011;56848;49.896;11.424;2023-04-03T08:52:19;3.42;;;2.45;;
12888;SDS011;56848;49.896;11.424;2023-04-03T08:54:52;3.53;;;2.25;;
12888;SDS011;56848;49.896;11.424;2023-04-03T08:57:25;2.40;;;2.20;;
12888;SDS011;56848;49.896;11.424;2023-04-03T09:02:52;1.00;;;0.90;;
12888;SDS011;56848;49.896;11.424;2023-04-03T09:05:20;4.53;;;1.70;;
12888;SDS011;56848;49.896;11.424;2023-04-03T09:08:18;4.13;;;2.70;;
12888;SDS011;56848;49.896;11.424;2023-04-03T09:11:03;2.10;;;1.90;;
12888;SDS011;56848;49.896;11.424;2023-04-03T09:19:06;3.20;;;2.20;;
12888;SDS011;56848;49.896;11.424;2023-04-03T09:21:37;3.42;;;2.20;;
12888;SDS011;56848;49.896;11.424;2023-04-03T09:24:05;2.03;;;1.70;;
12888;SDS011;56848;49.896;11.424;2023-04-03T09:29:06;3.80;;;2.10;;
12888;SDS011;56848;49.896;11.424;2023-04-03T09:31:36;6.67;;;1.70;;
12888;SDS011;56848;49.896;11.424;2023-04-03T09:34:15;2.33;;;1.50;;
12888;SDS011;56848;49.896;11.424;2023-04-03T09:36:51;1.90;;;1.80;;
12888;SDS011;56848;49.896;11.424;2023-04-03T09:39:19;4.70;;;1.48;;
12888;SDS011;56848;49.896;11.424;2023-04-03T09:42:04;1.70;;;1.60;;
12888;SDS011;56848;49.896;11.424;2023-04-03T09:44:53;1.65;;;1.38;;
12888;SDS011;56848;49.896;11.424;2023-04-03T09:50:08;4.57;;;1.60;;
12888;SDS011;56848;49.896;11.424;2023-04-03T09:52:37;1.10;;;1.00;;
12888;SDS011;56848;49.896;11.424;2023-04-03T09:55:08;1.30;;;1.20;;
12888;SDS011;56848;49.896;11.424;2023-04-03T09:57:41;2.10;;;1.90;;
12888;SDS011;56848;49.896;11.424;2023-04-03T10:00:19;1.20;;;1.20;;
12888;SDS011;56848;49.896;11.424;2023-04-03T10:02:56;1.40;;;1.30;;
12888;SDS011;56848;49.896;11.424;2023-04-03T10:05:56;1.73;;;1.33;;
12888;SDS011;56848;49.896;11.424;2023-04-03T10:08:23;3.13;;;1.50;;
12888;SDS011;56848;49.896;11.424;2023-04-03T10:11:11;1.27;;;1.20;;
12888;SDS011;56848;49.896;11.424;2023-04-03T10:19:51;1.48;;;1.45;;
12888;SDS011;56848;49.896;11.424;2023-04-03T10:22:00;4.20;;;1.50;;
12888;SDS011;56848;49.896;11.424;2023-04-03T10:25:01;1.42;;;1.17;;
12888;SDS011;56848;49.896;11.424;2023-04-03T10:27:53;5.13;;;1.57;;
12888;SDS011;56848;49.896;11.424;2023-04-03T10:35:28;1.77;;;1.67;;
12888;SDS011;56848;49.896;11.424;2023-04-03T10:38:28;1.60;;;1.50;;
12888;SDS011;56848;49.896;11.424;2023-04-03T10:41:08;1.83;;;1.45;;
12888;SDS011;56848;49.896;11.424;2023-04-03T10:46:36;1.53;;;1.43;;
12888;SDS011;56848;49.896;11.424;2023-04-03T10:51:48;1.70;;;1.48;;
12888;SDS011;56848;49.896;11.424;2023-04-03T10:54:23;1.37;;;1.20;;
12888;SDS011;56848;49.896;11.424;2023-04-03T10:57:01;3.63;;;1.50;;
12888;SDS011;56848;49.896;11.424;2023-04-03T11:02:03;2.20;;;1.40;;
12888;SDS011;56848;49.896;11.424;2023-04-03T11:04:30;2.37;;;1.40;;
12888;SDS011;56848;49.896;11.424;2023-04-03T11:07:12;2.20;;;1.77;;
12888;SDS011;56848;49.896;11.424;2023-04-03T11:09:46;7.33;;;1.50;;
12888;SDS011;56848;49.896;11.424;2023-04-03T11:15:05;1.23;;;1.23;;
12888;SDS011;56848;49.896;11.424;2023-04-03T11:17:41;1.60;;;1.17;;
12888;SDS011;56848;49.896;11.424;2023-04-03T11:20:17;1.60;;;1.33;;
12888;SDS011;56848;49.896;11.424;2023-04-03T11:23:00;5.23;;;1.90;;
12888;SDS011;56848;49.896;11.424;2023-04-03T11:25:31;19.07;;;1.20;;
12888;SDS011;56848;49.896;11.424;2023-04-03T11:28:00;1.37;;;1.20;;
12888;SDS011;56848;49.896;11.424;2023-04-03T11:30:39;2.27;;;1.63;;
12888;SDS011;56848;49.896;11.424;2023-04-03T11:35:42;1.83;;;1.53;;
12888;SDS011;56848;49.896;11.424;2023-04-03T11:38:21;1.77;;;1.20;;
12888;SDS011;56848;49.896;11.424;2023-04-03T11:40:59;5.03;;;1.40;;
12888;SDS011;56848;49.896;11.424;2023-04-03T11:45:55;4.07;;;1.70;;
12888;SDS011;56848;49.896;11.424;2023-04-03T11:50:56;3.30;;;1.60;;
12888;SDS011;56848;49.896;11.424;2023-04-03T11:53:38;2.63;;;1.50;;
12888;SDS011;56848;49.896;11.424;2023-04-03T11:56:39;1.60;;;1.13;;
12888;SDS011;56848;49.896;11.424;2023-04-03T12:04:11;1.27;;;1.17;;
12888;SDS011;56848;49.896;11.424;2023-04-03T12:06:47;3.53;;;1.47;;
12888;SDS011;56848;49.896;11.424;2023-04-03T12:09:26;1.80;;;1.33;;
12888;SDS011;56848;49.896;11.424;2023-04-03T12:11:52;3.63;;;1.30;;
12888;SDS011;56848;49.896;11.424;2023-04-03T12:14:20;5.83;;;1.37;;
12888;SDS011;56848;49.896;11.424;2023-04-03T12:16:49;4.57;;;2.17;;
12888;SDS011;56848;49.896;11.424;2023-04-03T12:19:36;2.60;;;1.67;;
12888;SDS011;56848;49.896;11.424;2023-04-03T12:22:06;6.10;;;1.70;;
12888;SDS011;56848;49.896;11.424;2023-04-03T12:24:39;2.40;;;1.47;;
12888;SDS011;56848;49.896;11.424;2023-04-03T12:29:52;1.57;;;1.43;;
12888;SDS011;56848;49.896;11.424;2023-04-03T12:35:49;1.93;;;1.73;;
12888;SDS011;56848;49.896;11.424;2023-04-03T12:46:18;2.57;;;1.83;;
12888;SDS011;56848;49.896;11.424;2023-04-03T12:48:51;3.70;;;2.03;;
12888;SDS011;56848;49.896;11.424;2023-04-03T12:51:19;2.40;;;1.83;;
12888;SDS011;56848;49.896;11.424;2023-04-03T12:53:52;9.30;;;1.70;;
12888;SDS011;56848;49.896;11.424;2023-04-03T12:56:28;4.10;;;1.30;;
12888;SDS011;56848;49.896;11.424;2023-04-03T12:59:12;3.17;;;1.30;;
12888;SDS011;56848;49.896;11.424;2023-04-03T13:01:43;1.80;;;1.70;;
12888;SDS011;56848;49.896;11.424;2023-04-03T13:04:17;1.30;;;1.20;;
12888;SDS011;56848;49.896;11.424;2023-04-03T13:06:43;4.50;;;1.80;;
12888;SDS011;56848;49.896;11.424;2023-04-03T13:09:23;5.53;;;2.10;;
12888;SDS011;56848;49.896;11.424;2023-04-03T13:11:55;1.93;;;1.73;;
12888;SDS011;56848;49.896;11.424;2023-04-03T13:14:39;1.33;;;1.23;;
12888;SDS011;56848;49.896;11.424;2023-04-03T13:17:15;1.50;;;1.40;;
12888;SDS011;56848;49.896;11.424;2023-04-03T13:19:42;2.40;;;1.20;;
12888;SDS011;56848;49.896;11.424;2023-04-03T13:22:23;1.73;;;1.63;;
12888;SDS011;56848;49.896;11.424;2023-04-03T13:24:58;3.87;;;1.60;;
12888;SDS011;56848;49.896;11.424;2023-04-03T13:27:26;1.17;;;1.10;;
12888;SDS011;56848;49.896;11.424;2023-04-03T13:29:56;1.13;;;1.00;;
12888;SDS011;56848;49.896;11.424;2023-04-03T13:32:25;5.20;;;1.40;;
12888;SDS011;56848;49.896;11.424;2023-04-03T13:34:52;1.50;;;1.40;;
12888;SDS011;56848;49.896;11.424;2023-04-03T13:37:39;2.83;;;1.60;;
12888;SDS011;56848;49.896;11.424;2023-04-03T13:42:33;0.90;;;0.90;;
12888;SDS011;56848;49.896;11.424;2023-04-03T13:45:18;1.63;;;1.53;;
12888;SDS011;56848;49.896;11.424;2023-04-03T13:47:50;1.70;;;1.20;;
12888;SDS011;56848;49.896;11.424;2023-04-03T13:50:19;5.00;;;1.37;;
12888;SDS011;56848;49.896;11.424;2023-04-03T13:52:50;2.50;;;1.60;;
12888;SDS011;56848;49.896;11.424;2023-04-03T13:57:51;1.70;;;1.17;;
12888;SDS011;56848;49.896;11.424;2023-04-03T14:00:21;1.17;;;1.07;;
12888;SDS011;56848;49.896;11.424;2023-04-03T14:02:50;1.43;;;1.23;;
12888;SDS011;56848;49.896;11.424;2023-04-03T14:05:21;2.67;;;1.40;;
12888;SDS011;56848;49.896;11.424;2023-04-03T14:07:49;3.20;;;1.53;;
12888;SDS011;56848;49.896;11.424;2023-04-03T14:10:15;2.00;;;1.53;;
12888;SDS011;56848;49.896;11.424;2023-04-03T14:12:41;2.97;;;1.40;;
12888;SDS011;56848;49.896;11.424;2023-04-03T14:15:14;1.50;;;1.10;;
12888;SDS011;56848;49.896;11.424;2023-04-03T14:17:43;5.80;;;1.77;;
12888;SDS011;56848;49.896;11.424;2023-04-03T14:20:19;3.27;;;1.20;;
12888;SDS011;56848;49.896;11.424;2023-04-03T14:22:47;3.23;;;1.30;;
12888;SDS011;56848;49.896;11.424;2023-04-03T14:25:14;1.00;;;0.90;;
12888;SDS011;56848;49.896;11.424;2023-04-03T14:27:43;1.50;;;1.10;;
12888;SDS011;56848;49.896;11.424;2023-04-03T14:30:15;2.40;;;1.57;;
12888;SDS011;56848;49.896;11.424;2023-04-03T14:32:44;0.97;;;0.93;;
12888;SDS011;56848;49.896;11.424;2023-04-03T14:35:11;2.93;;;2.00;;
12888;SDS011;56848;49.896;11.424;2023-04-03T14:37:37;2.07;;;1.20;;
12888;SDS011;56848;49.896;11.424;2023-04-03T14:40:04;1.27;;;1.17;;
12888;SDS011;56848;49.896;11.424;2023-04-03T14:42:34;1.93;;;1.57;;
12888;SDS011;56848;49.896;11.424;2023-04-03T14:45:02;1.53;;;1.43;;
12888;SDS011;56848;49.896;11.424;2023-04-03T14:47:30;2.03;;;1.50;;
12888;SDS011;56848;49.896;11.424;2023-04-03T14:49:57;1.80;;;1.20;;
12888;SDS011;56848;49.896;11.424;2023-04-03T14:52:26;1.33;;;1.17;;
12888;SDS011;56848;49.896;11.424;2023-04-03T14:54:54;0.97;;;0.90;;
12888;SDS011;56848;49.896;11.424;2023-04-03T14:57:21;4.20;;;1.33;;
12888;SDS011;56848;49.896;11.424;2023-04-03T14:59:50;3.43;;;1.50;;
12888;SDS011;56848;49.896;11.424;2023-04-03T15:02:32;1.03;;;1.03;;
12888;SDS011;56848;49.896;11.424;2023-04-03T15:04:59;1.97;;;1.17;;
12888;SDS011;56848;49.896;11.424;2023-04-03T15:07:28;5.73;;;1.13;;
12888;SDS011;56848;49.896;11.424;2023-04-03T15:09:56;2.10;;;1.40;;
12888;SDS011;56848;49.896;11.424;2023-04-03T15:12:22;2.20;;;1.50;;
12888;SDS011;56848;49.896;11.424;2023-04-03T15:14:49;2.43;;;1.50;;
12888;SDS011;56848;49.896;11.424;2023-04-03T15:17:17;1.00;;;1.00;;
12888;SDS011;56848;49.896;11.424;2023-04-03T15:19:44;3.33;;;1.30;;
12888;SDS011;56848;49.896;11.424;2023-04-03T15:22:15;7.60;;;2.10;;
12888;SDS011;56848;49.896;11.424;2023-04-03T15:24:42;7.03;;;1.83;;
12888;SDS011;56848;49.896;11.424;2023-04-03T15:27:09;1.20;;;1.13;;
12888;SDS011;56848;49.896;11.424;2023-04-03T15:29:35;0.87;;;0.80;;
12888;SDS011;56848;49.896;11.424;2023-04-03T15:32:01;1.03;;;0.80;;
12888;SDS011;56848;49.896;11.424;2023-04-03T15:34:27;1.57;;;1.00;;
12888;SDS011;56848;49.896;11.424;2023-04-03T15:36:53;0.67;;;0.67;;
12888;SDS011;56848;49.896;11.424;2023-04-03T15:39:19;1.10;;;1.10;;
12888;SDS011;56848;49.896;11.424;2023-04-03T15:41:45;1.00;;;1.00;;
12888;SDS011;56848;49.896;11.424;2023-04-03T15:44:11;1.23;;;0.90;;
12888;SDS011;56848;49.896;11.424;2023-04-03T15:46:38;1.37;;;1.33;;
12888;SDS011;56848;49.896;11.424;2023-04-03T15:49:04;1.20;;;1.10;;
12888;SDS011;56848;49.896;11.424;2023-04-03T15:51:30;2.87;;;1.27;;
12888;SDS011;56848;49.896;11.424;2023-04-03T15:53:56;2.00;;;1.60;;
12888;SDS011;56848;49.896;11.424;2023-04-03T15:56:22;1.90;;;0.90;;
12888;SDS011;56848;49.896;11.424;2023-04-03T15:58:47;2.00;;;1.30;;
12888;SDS011;56848;49.896;11.424;2023-04-03T16:01:13;2.90;;;1.03;;
12888;SDS011;56848;49.896;11.424;2023-04-03T16:03:40;3.47;;;1.33;;
12888;SDS011;56848;49.896;11.424;2023-04-03T16:06:10;1.10;;;0.87;;
12888;SDS011;56848;49.896;11.424;2023-04-03T16:08:36;1.70;;;1.00;;
12888;SDS011;56848;49.896;11.424;2023-04-03T16:11:02;0.87;;;0.87;;
12888;SDS011;56848;49.896;11.424;2023-04-03T16:13:28;4.13;;;0.70;;
12888;SDS011;56848;49.896;11.424;2023-04-03T16:15:54;1.27;;;0.90;;
12888;SDS011;56848;49.896;11.424;2023-04-03T16:18:19;1.20;;;0.80;;
12888;SDS011;56848;49.896;11.424;2023-04-03T16:20:45;1.10;;;1.10;;
12888;SDS011;56848;49.896;11.424;2023-04-03T16:23:11;0.70;;;0.70;;
12888;SDS011;56848;49.896;11.424;2023-04-03T16:25:37;6.80;;;1.43;;
12888;SDS011;56848;49.896;11.424;2023-04-03T16:28:02;0.80;;;0.80;;
12888;SDS011;56848;49.896;11.424;2023-04-03T16:30:28;0.93;;;0.93;;
12888;SDS011;56848;49.896;11.424;2023-04-03T16:32:54;1.73;;;1.20;;
12888;SDS011;56848;49.896;11.424;2023-04-03T16:35:21;2.93;;;1.07;;
12888;SDS011;56848;49.896;11.424;2023-04-03T16:37:47;2.07;;;1.00;;
12888;SDS011;56848;49.896;11.424;2023-04-03T16:40:13;1.57;;;1.30;;
12888;SDS011;56848;49.896;11.424;2023-04-03T16:42:39;0.70;;;0.70;;
12888;SDS011;56848;49.896;11.424;2023-04-03T16:45:05;2.50;;;0.93;;
12888;SDS011;56848;49.896;11.424;2023-04-03T16:47:31;2.25;;;1.20;;
12888;SDS011;56848;49.896;11.424;2023-04-03T16:49:57;0.90;;;0.90;;
12888;SDS011;56848;49.896;11.424;2023-04-03T16:52:23;1.90;;;0.93;;
12888;SDS011;56848;49.896;11.424;2023-04-03T16:54:48;2.77;;;1.00;;
12888;SDS011;56848;49.896;11.424;2023-04-03T16:57:14;1.07;;;1.07;;
12888;SDS011;56848;49.896;11.424;2023-04-03T16:59:40;3.23;;;0.80;;
12888;SDS011;56848;49.896;11.424;2023-04-03T17:02:06;0.90;;;0.90;;
12888;SDS011;56848;49.896;11.424;2023-04-03T17:04:32;0.68;;;0.68;;
12888;SDS011;56848;49.896;11.424;2023-04-03T17:06:57;1.77;;;1.20;;
12888;SDS011;56848;49.896;11.424;2023-04-03T17:09:25;1.00;;;0.85;;
12888;SDS011;56848;49.896;11.424;2023-04-03T17:11:50;1.47;;;0.97;;
12888;SDS011;56848;49.896;11.424;2023-04-03T17:14:16;2.93;;;0.77;;
12888;SDS011;56848;49.896;11.424;2023-04-03T17:16:41;1.53;;;1.07;;
12888;SDS011;56848;49.896;11.424;2023-04-03T17:19:07;0.60;;;0.60;;
12888;SDS011;56848;49.896;11.424;2023-04-03T17:21:33;1.47;;;1.37;;
12888;SDS011;56848;49.896;11.424;2023-04-03T17:24:00;0.90;;;0.90;;
12888;SDS011;56848;49.896;11.424;2023-04-03T17:26:28;4.25;;;1.08;;
12888;SDS011;56848;49.896;11.424;2023-04-03T17:28:54;0.60;;;0.60;;
12888;SDS011;56848;49.896;11.424;2023-04-03T17:31:21;3.55;;;1.10;;
12888;SDS011;56848;49.896;11.424;2023-04-03T17:33:47;4.50;;;1.13;;
12888;SDS011;56848;49.896;11.424;2023-04-03T17:36:12;2.03;;;0.90;;
12888;SDS011;56848;49.896;11.424;2023-04-03T17:38:38;1.47;;;1.00;;
12888;SDS011;56848;49.896;11.424;2023-04-03T17:41:05;1.60;;;1.17;;
12888;SDS011;56848;49.896;11.424;2023-04-03T17:43:32;1.63;;;0.90;;
12888;SDS011;56848;49.896;11.424;2023-04-03T17:45:59;1.90;;;0.82;;
12888;SDS011;56848;49.896;11.424;2023-04-03T17:48:28;1.58;;;1.48;;
12888;SDS011;56848;49.896;11.424;2023-04-03T17:50:54;1.50;;;1.10;;
12888;SDS011;56848;49.896;11.424;2023-04-03T17:53:20;1.23;;;1.00;;
12888;SDS011;56848;49.896;11.424;2023-04-03T17:55:45;0.80;;;0.80;;
12888;SDS011;56848;49.896;11.424;2023-04-03T17:58:11;2.43;;;0.70;;
12888;SDS011;56848;49.896;11.424;2023-04-03T18:00:36;2.83;;;1.10;;
12888;SDS011;56848;49.896;11.424;2023-04-03T18:03:02;1.53;;;1.03;;
12888;SDS011;56848;49.896;11.424;2023-04-03T18:05:28;3.47;;;1.10;;
12888;SDS011;56848;49.896;11.424;2023-04-03T18:07:55;3.55;;;0.93;;
12888;SDS011;56848;49.896;11.424;2023-04-03T18:10:22;0.70;;;0.70;;
12888;SDS011;56848;49.896;11.424;2023-04-03T18:12:47;8.50;;;1.00;;
12888;SDS011;56848;49.896;11.424;2023-04-03T18:15:13;1.07;;;0.90;;
12888;SDS011;56848;49.896;11.424;2023-04-03T18:17:38;1.27;;;1.17;;
12888;SDS011;56848;49.896;11.424;2023-04-03T18:20:04;0.90;;;0.90;;
12888;SDS011;56848;49.896;11.424;2023-04-03T18:22:30;1.23;;;1.05;;
12888;SDS011;56848;49.896;11.424;2023-04-03T18:24:56;0.80;;;0.80;;
12888;SDS011;56848;49.896;11.424;2023-04-03T18:27:24;4.75;;;1.00;;
12888;SDS011;56848;49.896;11.424;2023-04-03T18:29:51;1.70;;;1.45;;
12888;SDS011;56848;49.896;11.424;2023-04-03T18:32:20;1.13;;;0.90;;
12888;SDS011;56848;49.896;11.424;2023-04-03T18:34:46;3.60;;;0.90;;
12888;SDS011;56848;49.896;11.424;2023-04-03T18:37:11;2.10;;;1.10;;
12888;SDS011;56848;49.896;11.424;2023-04-03T18:39:37;3.03;;;0.97;;
12888;SDS011;56848;49.896;11.424;2023-04-03T18:42:13;0.70;;;0.70;;
12888;SDS011;56848;49.896;11.424;2023-04-03T18:44:41;3.40;;;1.10;;
12888;SDS011;56848;49.896;11.424;2023-04-03T18:47:09;1.65;;;1.42;;
12888;SDS011;56848;49.896;11.424;2023-04-03T18:49:36;0.90;;;0.90;;
12888;SDS011;56848;49.896;11.424;2023-04-03T18:52:04;1.42;;;1.20;;
